createdAt,value
2022-12-20T00:03:20.864Z,4.90
2022-12-20T00:07:22.101Z,4.80
2022-12-20T00:11:24.004Z,4.90
2022-12-20T00:15:25.293Z,4.90
2022-12-20T00:19:26.629Z,4.90
2022-12-20T00:23:29.184Z,5.00
2022-12-20T00:27:30.394Z,5.00
2022-12-20T00:31:31.944Z,5.10
2022-12-20T00:35:33.891Z,5.10
2022-12-20T00:39:35.077Z,5.10
2022-12-20T00:43:37.338Z,5.20
2022-12-20T00:47:38.524Z,5.10
2022-12-20T00:51:39.720Z,5.20
2022-12-20T00:55:42.614Z,5.20
2022-12-20T00:59:43.771Z,5.10
2022-12-20T01:03:45.023Z,5.10
2022-12-20T01:07:46.173Z,5.20
2022-12-20T01:11:47.392Z,5.20
2022-12-20T01:15:48.581Z,5.10
2022-12-20T01:19:49.747Z,5.10
2022-12-20T01:23:51.573Z,5.20
2022-12-20T01:27:53.769Z,5.20
2022-12-20T01:31:55.062Z,5.10
2022-12-20T01:36:02.574Z,5.10
2022-12-20T01:40:04.911Z,5.10
2022-12-20T01:44:19.340Z,5.10
2022-12-20T01:48:25.540Z,5.20
2022-12-20T01:52:39.951Z,5.20
2022-12-20T01:56:43.970Z,4.90
2022-12-20T02:00:45.805Z,5.00
2022-12-20T02:04:47.208Z,5.10
2022-12-20T02:08:50.392Z,5.10
2022-12-20T02:12:58.092Z,5.10
2022-12-20T02:17:28.686Z,5.00
2022-12-20T02:21:33.794Z,5.20
2022-12-20T02:26:10.161Z,5.10
2022-12-20T02:30:14.884Z,5.10
2022-12-20T02:34:18.264Z,5.10
2022-12-20T02:38:32.325Z,5.10
2022-12-20T02:42:33.999Z,5.10
2022-12-20T02:46:36.989Z,5.10
2022-12-20T02:50:42.232Z,5.10
2022-12-20T02:54:43.648Z,5.10
2022-12-20T02:59:00.278Z,5.00
2022-12-20T03:03:20.737Z,5.10
2022-12-20T03:07:22.268Z,5.10
2022-12-20T03:11:23.459Z,5.20
2022-12-20T03:15:24.659Z,5.10
2022-12-20T03:19:25.968Z,5.20
2022-12-20T03:23:27.505Z,5.20
2022-12-20T03:27:28.886Z,5.20
2022-12-20T03:31:30.230Z,5.10
2022-12-20T03:35:31.707Z,5.00
2022-12-20T03:39:32.920Z,5.00
2022-12-20T03:43:34.218Z,5.00
2022-12-20T03:47:35.409Z,5.10
2022-12-20T03:51:36.803Z,5.10
2022-12-20T03:55:37.970Z,5.10
2022-12-20T03:59:39.374Z,5.20
2022-12-20T04:03:40.632Z,5.40
2022-12-20T04:07:41.859Z,5.30
2022-12-20T04:11:43.117Z,5.40
2022-12-20T04:15:44.358Z,5.40
2022-12-20T04:19:45.520Z,5.40
2022-12-20T04:23:46.720Z,5.40
2022-12-20T04:27:47.937Z,5.40
2022-12-20T04:31:49.210Z,5.50
2022-12-20T04:35:51.308Z,5.40
2022-12-20T04:39:52.668Z,5.30
2022-12-20T04:43:56.366Z,5.40
2022-12-20T04:47:57.561Z,5.40
2022-12-20T04:52:01.437Z,5.40
2022-12-20T04:56:03.003Z,5.50
2022-12-20T05:00:04.867Z,5.40
2022-12-20T05:04:06.130Z,5.50
2022-12-20T05:08:07.364Z,5.50
2022-12-20T05:12:08.550Z,5.40
2022-12-20T05:16:09.812Z,5.40
2022-12-20T05:20:12.206Z,5.40
2022-12-20T05:24:18.108Z,5.40
2022-12-20T05:28:19.266Z,5.40
2022-12-20T05:32:20.432Z,5.40
2022-12-20T05:36:21.617Z,5.30
2022-12-20T05:40:22.824Z,5.10
2022-12-20T05:44:24.031Z,5.10
2022-12-20T05:48:27.141Z,5.30
2022-12-20T05:52:28.501Z,5.50
2022-12-20T05:56:29.726Z,5.50
2022-12-20T06:00:30.895Z,5.50
2022-12-20T06:04:32.356Z,5.60
2022-12-20T06:08:33.645Z,5.60
2022-12-20T06:12:34.836Z,5.60
2022-12-20T06:16:36.075Z,5.50
2022-12-20T06:20:37.707Z,5.70
2022-12-20T06:24:44.362Z,5.70
2022-12-20T06:28:42.293Z,5.70
2022-12-20T06:32:43.493Z,5.80
2022-12-20T06:36:44.743Z,5.90
2022-12-20T06:40:45.928Z,5.90
2022-12-20T06:44:47.469Z,5.80
2022-12-20T06:48:48.629Z,5.50
2022-12-20T06:52:49.828Z,5.40
2022-12-20T06:56:51.001Z,5.30
2022-12-20T07:00:52.280Z,5.30
2022-12-20T07:04:53.450Z,5.30
2022-12-20T07:08:55.027Z,5.30
2022-12-20T07:12:56.224Z,5.30
2022-12-20T07:16:57.440Z,5.30
2022-12-20T07:21:00.339Z,5.20
2022-12-20T07:25:01.976Z,5.60
2022-12-20T07:29:04.683Z,5.70
2022-12-20T07:33:05.847Z,5.80
2022-12-20T07:37:08.045Z,5.80
2022-12-20T07:41:12.649Z,5.90
2022-12-20T07:45:14.577Z,6.00
2022-12-20T07:49:15.487Z,6.00
2022-12-20T07:53:17.349Z,5.90
2022-12-20T07:57:24.816Z,5.70
2022-12-20T08:01:29.538Z,5.80
2022-12-20T08:05:32.201Z,5.80
2022-12-20T08:09:36.820Z,5.80
2022-12-20T08:13:45.682Z,5.90
2022-12-20T08:17:42.220Z,6.00
2022-12-20T08:21:45.247Z,6.10
2022-12-20T08:25:46.556Z,6.20
2022-12-20T08:29:48.963Z,6.30
2022-12-20T08:33:53.504Z,6.30
2022-12-20T08:37:54.701Z,6.50
2022-12-20T08:41:55.885Z,6.50
2022-12-20T08:45:57.297Z,6.70
2022-12-20T08:49:58.553Z,6.70
2022-12-20T08:53:59.952Z,6.70
2022-12-20T08:58:01.643Z,6.70
2022-12-20T09:02:02.936Z,6.80
2022-12-20T09:06:06.681Z,6.80
2022-12-20T09:10:08.998Z,6.90
2022-12-20T09:14:10.149Z,6.90
2022-12-20T09:18:11.444Z,6.60
2022-12-20T09:22:12.637Z,6.60
2022-12-20T09:26:15.542Z,6.70
2022-12-20T09:30:16.833Z,6.90
2022-12-20T09:34:18.036Z,7.00
2022-12-20T09:38:19.211Z,6.80
2022-12-20T09:42:23.727Z,7.00
2022-12-20T09:46:25.899Z,7.20
2022-12-20T09:50:46.097Z,7.30
2022-12-20T09:54:51.071Z,7.40
2022-12-20T09:59:01.796Z,7.40
2022-12-20T10:03:09.931Z,7.60
2022-12-20T10:07:16.596Z,7.60
2022-12-20T10:11:30.527Z,7.70
2022-12-20T10:15:37.367Z,7.60
2022-12-20T10:19:57.016Z,7.70
2022-12-20T10:24:04.721Z,7.80
2022-12-20T10:28:11.971Z,7.50
2022-12-20T10:32:16.360Z,7.70
2022-12-20T10:36:21.480Z,7.70
2022-12-20T10:40:53.281Z,7.70
2022-12-20T10:44:32.651Z,7.80
2022-12-20T10:48:37.153Z,7.80
2022-12-20T10:52:38.431Z,8.00
2022-12-20T10:56:39.807Z,8.00
2022-12-20T11:00:42.127Z,8.10
2022-12-20T11:04:47.091Z,8.30
2022-12-20T11:08:52.772Z,8.40
2022-12-20T11:13:01.422Z,8.40
2022-12-20T11:17:09.008Z,8.60
2022-12-20T11:21:19.435Z,8.70
2022-12-20T11:25:27.142Z,8.80
2022-12-20T11:29:41.237Z,8.90
2022-12-20T11:34:20.237Z,8.80
2022-12-20T11:38:31.114Z,8.90
2022-12-20T11:42:47.981Z,9.00
2022-12-20T11:47:02.090Z,9.10
2022-12-20T11:51:10.955Z,9.40
2022-12-20T11:55:21.051Z,9.50
2022-12-20T11:59:44.159Z,9.50
2022-12-20T12:03:55.176Z,9.40
2022-12-20T12:08:03.181Z,9.00
2022-12-20T12:12:24.536Z,9.00
2022-12-20T12:16:29.813Z,9.30
2022-12-20T12:20:49.880Z,9.50
2022-12-20T12:24:54.891Z,9.60
2022-12-20T12:28:58.953Z,9.60
2022-12-20T12:33:03.881Z,9.70
2022-12-20T12:37:42.690Z,10.00
2022-12-20T12:42:06.570Z,10.10
2022-12-20T12:46:17.732Z,10.10
2022-12-20T12:50:25.832Z,10.10
2022-12-20T12:54:38.904Z,10.10
2022-12-20T12:58:46.553Z,10.00
2022-12-20T13:02:51.551Z,9.50
2022-12-20T13:06:59.424Z,9.60
2022-12-20T13:11:01.758Z,9.50
2022-12-20T13:15:25.125Z,9.50
2022-12-20T13:19:30.139Z,9.70
2022-12-20T13:23:31.441Z,9.70
2022-12-20T13:27:35.822Z,9.90
2022-12-20T13:31:37.008Z,10.00
2022-12-20T13:35:48.074Z,9.70
2022-12-20T13:39:49.662Z,9.70
2022-12-20T13:43:52.242Z,9.50
2022-12-20T13:47:57.165Z,10.10
2022-12-20T13:52:14.922Z,10.20
2022-12-20T13:56:41.054Z,10.20
2022-12-20T14:00:43.325Z,10.00
2022-12-20T14:04:48.086Z,9.90
2022-12-20T14:08:51.919Z,9.80
2022-12-20T14:12:54.644Z,9.80
2022-12-20T14:16:55.872Z,9.90
2022-12-20T14:21:04.632Z,9.70
2022-12-20T14:25:08.223Z,9.70
2022-12-20T14:29:11.844Z,9.40
2022-12-20T14:33:28.952Z,9.40
2022-12-20T14:37:35.895Z,9.40
2022-12-20T14:41:40.285Z,9.40
2022-12-20T14:45:41.884Z,9.40
2022-12-20T14:49:55.024Z,9.30
2022-12-20T14:53:58.283Z,9.20
2022-12-20T14:57:59.964Z,9.00
2022-12-20T15:02:04.979Z,9.10
2022-12-20T15:06:10.689Z,8.90
2022-12-20T15:10:12.708Z,8.90
2022-12-20T15:14:23.507Z,9.00
2022-12-20T15:18:24.689Z,8.90
2022-12-20T15:22:27.213Z,8.90
2022-12-20T15:26:30.404Z,8.80
2022-12-20T15:30:31.566Z,8.60
2022-12-20T15:34:37.954Z,8.60
2022-12-20T15:42:42.865Z,8.60
2022-12-20T15:46:44.070Z,8.60
2022-12-20T15:50:54.205Z,8.60
2022-12-20T15:54:55.455Z,8.60
2022-12-20T15:58:56.632Z,8.50
2022-12-20T16:02:59.928Z,8.50
2022-12-20T16:07:02.982Z,8.60
2022-12-20T16:11:07.159Z,8.50
2022-12-20T16:15:20.920Z,8.50
2022-12-20T16:19:22.120Z,8.50
2022-12-20T16:23:23.316Z,8.30
2022-12-20T16:27:24.485Z,8.30
2022-12-20T16:31:30.362Z,8.30
2022-12-20T16:35:36.576Z,8.20
2022-12-20T16:39:37.760Z,8.30
2022-12-20T16:43:39.349Z,8.40
2022-12-20T16:47:40.515Z,8.30
2022-12-20T16:51:47.026Z,8.30
2022-12-20T16:55:48.282Z,8.30
2022-12-20T16:59:50.505Z,8.30
2022-12-20T17:17:14.196Z,8.30
2022-12-20T17:21:22.269Z,8.30
2022-12-20T17:25:27.357Z,8.20
2022-12-20T17:29:28.539Z,8.30
2022-12-20T17:33:29.929Z,8.30
2022-12-20T17:37:31.121Z,8.30
2022-12-20T17:41:33.041Z,8.30
2022-12-20T17:45:35.582Z,8.30
2022-12-20T17:49:36.732Z,8.30
2022-12-20T17:57:45.729Z,8.00
2022-12-20T18:01:47.165Z,8.10
2022-12-20T18:05:48.495Z,8.20
2022-12-20T18:09:50.221Z,8.10
2022-12-20T18:13:53.056Z,8.20
2022-12-20T18:17:54.294Z,8.30
2022-12-20T18:21:57.359Z,8.30
2022-12-20T18:26:17.752Z,8.30
2022-12-20T18:30:18.949Z,8.30
2022-12-20T18:34:20.176Z,8.30
2022-12-20T18:38:22.732Z,8.20
2022-12-20T18:42:23.930Z,8.30
2022-12-20T18:46:25.776Z,8.30
2022-12-20T18:50:27.244Z,8.40
2022-12-20T18:54:29.674Z,8.30
2022-12-20T18:58:31.592Z,8.30
2022-12-20T19:02:32.883Z,8.30
2022-12-20T19:06:36.220Z,8.30
2022-12-20T19:10:37.456Z,8.20
2022-12-20T19:14:39.177Z,8.10
2022-12-20T19:18:41.996Z,8.00
2022-12-20T19:22:43.175Z,8.10
2022-12-20T19:26:44.405Z,8.00
2022-12-20T19:30:45.623Z,8.00
2022-12-20T19:34:46.901Z,8.10
2022-12-20T19:38:51.033Z,8.10
2022-12-20T19:42:52.178Z,8.10
2022-12-20T19:46:53.482Z,8.10
2022-12-20T19:51:11.057Z,8.10
2022-12-20T19:55:12.559Z,8.10
2022-12-20T19:59:15.366Z,8.10
2022-12-20T20:03:17.311Z,8.10
2022-12-20T20:07:19.253Z,8.10
2022-12-20T20:11:20.601Z,8.10
2022-12-20T20:15:21.803Z,8.10
2022-12-20T20:19:23.045Z,8.10
2022-12-20T20:23:24.728Z,8.20
2022-12-20T20:27:25.809Z,8.20
2022-12-20T20:31:27.297Z,8.10
2022-12-20T20:35:28.465Z,8.20
2022-12-20T20:39:29.675Z,8.20
2022-12-20T20:43:32.757Z,8.20
2022-12-20T20:47:34.024Z,8.20
2022-12-20T20:51:35.234Z,8.20
2022-12-20T20:55:37.004Z,8.20
2022-12-20T20:59:38.850Z,8.20
2022-12-20T21:03:40.080Z,8.30
2022-12-20T21:07:41.396Z,8.50
2022-12-20T21:11:43.441Z,8.60
2022-12-20T21:15:45.763Z,8.70
2022-12-20T21:19:47.052Z,8.70
2022-12-20T21:23:48.785Z,8.80
2022-12-20T21:27:49.953Z,8.80
2022-12-20T21:31:51.075Z,8.80
2022-12-20T21:36:07.062Z,8.90
2022-12-20T21:40:09.478Z,9.00
2022-12-20T21:44:11.299Z,9.20
2022-12-20T21:48:12.447Z,9.30
2022-12-20T21:52:13.620Z,9.40
2022-12-20T21:56:15.883Z,9.50
2022-12-20T22:00:19.160Z,9.10
2022-12-20T22:04:20.333Z,8.50
2022-12-20T22:08:23.078Z,8.00
2022-12-20T22:12:24.538Z,7.80
2022-12-20T22:16:31.468Z,7.90
2022-12-20T22:20:36.105Z,8.00
2022-12-20T22:24:37.302Z,8.00
2022-12-20T22:28:41.128Z,8.10
2022-12-20T22:32:42.337Z,8.00
2022-12-20T22:36:43.584Z,8.00
2022-12-20T22:40:44.727Z,8.20
2022-12-20T22:44:45.947Z,8.20
2022-12-20T22:48:47.127Z,8.20
2022-12-20T22:52:48.301Z,8.30
2022-12-20T22:56:49.457Z,8.40
2022-12-20T23:00:50.647Z,8.60
2022-12-20T23:04:51.990Z,8.60
2022-12-20T23:08:53.272Z,8.70
2022-12-20T23:13:13.092Z,8.80
2022-12-20T23:17:14.247Z,8.80
2022-12-20T23:21:33.977Z,8.90
2022-12-20T23:25:35.132Z,9.10
2022-12-20T23:29:36.309Z,9.30
2022-12-20T23:33:37.492Z,9.60
2022-12-20T23:37:39.091Z,9.70
2022-12-20T23:41:40.240Z,9.90
2022-12-20T23:45:41.445Z,10.10
2022-12-20T23:49:42.560Z,10.10
2022-12-20T23:53:44.128Z,10.20
2022-12-20T23:57:45.268Z,10.10
